createdAt,value
2019-01-23T00:01:03.441Z,65.63
2019-01-23T00:03:51.138Z,62.70
2019-01-23T00:06:38.888Z,63.40
2019-01-23T00:09:27.042Z,58.47
2019-01-23T00:12:15.108Z,60.03
2019-01-23T00:15:03.068Z,66.50
2019-01-23T00:17:51.284Z,67.17
2019-01-23T00:20:39.481Z,62.17
2019-01-23T00:23:27.052Z,59.90
2019-01-23T00:26:14.866Z,59.57
2019-01-23T00:29:02.733Z,61.83
2019-01-23T00:31:50.751Z,67.33
2019-01-23T00:34:38.759Z,64.40
2019-01-23T00:37:26.610Z,57.90
2019-01-23T00:40:14.774Z,62.50
2019-01-23T00:43:03.001Z,58.80
2019-01-23T00:45:50.960Z,61.03
2019-01-23T00:48:38.936Z,56.43
2019-01-23T00:51:26.822Z,57.20
2019-01-23T00:54:14.757Z,58.53
2019-01-23T00:57:02.392Z,58.97
2019-01-23T00:59:50.235Z,63.30
2019-01-23T01:02:38.092Z,66.50
2019-01-23T01:05:25.924Z,66.23
2019-01-23T01:08:14.149Z,65.17
2019-01-23T01:11:01.849Z,69.07
2019-01-23T01:13:49.675Z,67.40
2019-01-23T01:16:37.394Z,61.27
2019-01-23T01:19:25.473Z,66.43
2019-01-23T01:22:13.621Z,67.10
2019-01-23T01:25:01.121Z,70.20
2019-01-23T01:27:48.902Z,62.57
2019-01-23T01:30:37.071Z,63.77
2019-01-23T01:33:25.174Z,63.60
2019-01-23T01:36:13.021Z,64.67
2019-01-23T01:39:00.707Z,64.70
2019-01-23T01:41:48.803Z,71.07
2019-01-23T01:44:36.535Z,64.67
2019-01-23T01:47:24.587Z,60.87
2019-01-23T01:50:17.706Z,60.27
2019-01-23T01:53:05.991Z,57.63
2019-01-23T01:55:53.665Z,65.70
2019-01-23T01:58:41.956Z,65.33
2019-01-23T02:01:30.066Z,59.73
2019-01-23T02:04:18.034Z,59.80
2019-01-23T02:07:05.919Z,61.87
2019-01-23T02:09:54.077Z,63.20
2019-01-23T02:12:42.089Z,64.87
2019-01-23T02:15:30.039Z,62.67
2019-01-23T02:18:18.219Z,64.43
2019-01-23T02:21:06.646Z,58.80
2019-01-23T02:23:54.577Z,65.70
2019-01-23T02:26:42.664Z,67.10
2019-01-23T02:29:30.640Z,65.93
2019-01-23T02:32:18.508Z,63.07
2019-01-23T02:35:07.296Z,61.60
2019-01-23T02:37:55.450Z,59.50
2019-01-23T02:40:43.491Z,55.47
2019-01-23T02:43:31.378Z,59.93
2019-01-23T02:46:19.565Z,57.70
2019-01-23T02:49:07.410Z,50.97
2019-01-23T02:51:55.273Z,51.07
2019-01-23T02:54:42.899Z,51.23
2019-01-23T02:57:30.725Z,50.80
2019-01-23T03:00:20.119Z,45.33
2019-01-23T03:03:08.035Z,46.33
2019-01-23T03:05:56.105Z,53.60
2019-01-23T03:08:43.923Z,54.03
2019-01-23T03:11:31.986Z,47.87
2019-01-23T03:14:20.144Z,57.40
2019-01-23T03:17:08.115Z,48.83
2019-01-23T03:19:55.792Z,52.43
2019-01-23T03:22:43.695Z,46.70
2019-01-23T03:25:31.489Z,59.03
2019-01-23T03:28:19.624Z,51.80
2019-01-23T03:31:07.450Z,61.03
2019-01-23T03:33:55.611Z,53.77
2019-01-23T03:36:43.428Z,56.93
2019-01-23T03:39:31.256Z,60.73
2019-01-23T03:42:19.197Z,59.77
2019-01-23T03:45:08.884Z,59.77
2019-01-23T03:47:56.686Z,57.63
2019-01-23T03:50:44.204Z,59.70
2019-01-23T03:53:32.471Z,57.63
2019-01-23T03:56:20.470Z,57.47
2019-01-23T03:59:08.735Z,59.17
2019-01-23T04:01:56.665Z,57.33
2019-01-23T04:04:44.629Z,58.37
2019-01-23T04:07:32.432Z,50.87
2019-01-23T04:10:20.159Z,58.60
2019-01-23T04:13:08.400Z,53.37
2019-01-23T04:15:56.481Z,57.53
2019-01-23T04:18:44.623Z,55.03
2019-01-23T04:21:32.168Z,53.87
2019-01-23T04:24:20.531Z,56.83
2019-01-23T04:27:08.269Z,51.57
2019-01-23T04:29:56.118Z,57.93
2019-01-23T04:32:44.265Z,51.13
2019-01-23T04:35:32.508Z,49.43
2019-01-23T04:38:21.095Z,53.97
2019-01-23T04:41:08.843Z,52.80
2019-01-23T04:43:57.412Z,46.13
2019-01-23T04:46:45.199Z,51.70
2019-01-23T04:49:34.895Z,46.83
2019-01-23T04:52:40.280Z,48.40
2019-01-23T04:55:28.338Z,53.30
2019-01-23T04:58:16.166Z,46.23
2019-01-23T05:01:04.376Z,49.70
2019-01-23T05:03:52.450Z,47.30
2019-01-23T05:06:40.251Z,55.53
2019-01-23T05:09:29.366Z,51.60
2019-01-23T05:12:17.325Z,51.13
2019-01-23T05:15:06.359Z,56.77
2019-01-23T05:17:54.582Z,52.00
2019-01-23T05:20:42.615Z,50.30
2019-01-23T05:23:30.543Z,52.47
2019-01-23T05:26:18.170Z,54.47
2019-01-23T05:29:06.545Z,51.13
2019-01-23T05:31:54.328Z,55.77
2019-01-23T05:34:42.088Z,51.90
2019-01-23T05:37:30.022Z,47.57
2019-01-23T05:40:18.329Z,51.07
2019-01-23T05:43:06.145Z,56.87
2019-01-23T05:45:54.074Z,53.37
2019-01-23T05:48:42.151Z,48.70
2019-01-23T05:51:30.540Z,51.37
2019-01-23T05:54:18.373Z,55.90
2019-01-23T05:57:06.661Z,54.47
2019-01-23T06:00:02.082Z,51.03
2019-01-23T06:02:44.419Z,46.00
2019-01-23T06:05:32.331Z,51.10
2019-01-23T06:08:20.233Z,50.13
2019-01-23T06:11:08.070Z,53.10
2019-01-23T06:13:56.110Z,48.10
2019-01-23T06:16:43.905Z,48.93
2019-01-23T06:19:31.634Z,45.60
2019-01-23T06:22:19.186Z,41.87
2019-01-23T06:25:07.672Z,47.27
2019-01-23T06:27:55.478Z,40.60
2019-01-23T06:30:43.349Z,35.30
2019-01-23T06:33:31.467Z,37.97
2019-01-23T06:36:19.466Z,35.40
2019-01-23T06:39:08.932Z,37.37
2019-01-23T06:41:57.228Z,30.93
2019-01-23T06:44:45.534Z,28.97
2019-01-23T06:47:33.458Z,28.57
2019-01-23T06:50:22.881Z,30.23
2019-01-23T06:53:14.102Z,30.40
2019-01-23T06:56:00.409Z,33.50
2019-01-23T06:58:48.708Z,33.87
2019-01-23T07:01:36.583Z,31.13
2019-01-23T07:04:24.754Z,28.47
2019-01-23T07:07:12.651Z,30.73
2019-01-23T07:10:00.957Z,27.40
2019-01-23T07:12:48.556Z,29.67
2019-01-23T07:15:36.436Z,30.90
2019-01-23T07:18:24.454Z,30.23
2019-01-23T07:21:12.696Z,27.70
2019-01-23T07:24:01.014Z,30.57
2019-01-23T07:26:49.046Z,30.07
2019-01-23T07:29:36.884Z,38.27
2019-01-23T07:32:24.910Z,25.93
2019-01-23T07:35:12.476Z,29.93
2019-01-23T07:38:00.496Z,32.03
2019-01-23T07:40:48.549Z,29.73
2019-01-23T07:43:36.502Z,26.40
2019-01-23T07:46:24.405Z,29.77
2019-01-23T07:49:12.759Z,27.07
2019-01-23T07:52:00.770Z,32.23
2019-01-23T07:54:48.666Z,27.53
2019-01-23T07:57:39.104Z,28.67
2019-01-23T08:00:31.579Z,35.33
2019-01-23T08:03:17.484Z,27.70
2019-01-23T08:06:05.444Z,30.57
2019-01-23T08:08:53.178Z,30.20
2019-01-23T08:11:41.560Z,28.43
2019-01-23T08:14:29.608Z,29.10
2019-01-23T08:17:17.649Z,26.07
2019-01-23T08:20:07.439Z,29.93
2019-01-23T08:22:55.522Z,34.03
2019-01-23T08:25:43.686Z,36.87
2019-01-23T08:28:31.657Z,39.97
2019-01-23T08:31:19.536Z,39.20
2019-01-23T08:34:07.866Z,36.83
2019-01-23T08:36:55.980Z,35.77
2019-01-23T08:39:44.052Z,33.00
2019-01-23T08:42:31.798Z,30.67
2019-01-23T08:45:19.923Z,30.43
2019-01-23T08:48:07.741Z,31.30
2019-01-23T08:50:55.333Z,31.33
2019-01-23T08:53:43.333Z,28.80
2019-01-23T08:56:31.505Z,34.00
2019-01-23T08:59:19.381Z,42.33
2019-01-23T09:02:07.449Z,38.17
2019-01-23T09:04:55.568Z,40.83
2019-01-23T09:07:43.925Z,37.47
2019-01-23T09:10:31.969Z,33.77
2019-01-23T09:13:20.068Z,34.30
2019-01-23T09:16:07.672Z,24.67
2019-01-23T09:18:55.910Z,24.17
2019-01-23T09:21:44.159Z,28.27
2019-01-23T09:24:32.541Z,24.63
2019-01-23T09:27:19.980Z,20.13
2019-01-23T09:30:13.289Z,24.90
2019-01-23T09:33:40.266Z,19.53
2019-01-23T09:37:01.700Z,17.43
2019-01-23T09:40:34.073Z,23.00
2019-01-23T09:44:14.292Z,20.23
2019-01-23T09:47:36.405Z,19.90
2019-01-23T09:50:44.107Z,23.23
2019-01-23T09:53:46.492Z,30.40
2019-01-23T09:56:34.373Z,23.20
2019-01-23T09:59:22.397Z,26.33
2019-01-23T10:02:10.239Z,27.80
2019-01-23T10:04:58.365Z,37.30
2019-01-23T10:07:46.346Z,31.47
2019-01-23T10:10:34.150Z,21.90
2019-01-23T10:13:21.966Z,36.43
2019-01-23T10:16:15.951Z,40.57
2019-01-23T10:19:03.474Z,34.77
2019-01-23T10:21:51.566Z,38.17
2019-01-23T10:24:39.808Z,38.57
2019-01-23T10:27:28.053Z,40.97
2019-01-23T10:30:16.127Z,39.53
2019-01-23T10:33:04.151Z,37.80
2019-01-23T10:35:52.289Z,36.00
2019-01-23T10:38:40.231Z,37.87
2019-01-23T10:41:28.253Z,40.67
2019-01-23T10:44:16.355Z,35.47
2019-01-23T10:47:04.402Z,37.67
2019-01-23T10:49:52.477Z,37.20
2019-01-23T10:52:40.102Z,40.50
2019-01-23T10:55:28.536Z,38.20
2019-01-23T10:58:16.350Z,43.70
2019-01-23T11:01:04.053Z,43.80
2019-01-23T11:03:52.175Z,42.57
2019-01-23T11:06:39.825Z,38.47
2019-01-23T11:09:28.035Z,41.17
2019-01-23T11:12:15.915Z,39.57
2019-01-23T11:15:04.156Z,36.57
2019-01-23T11:17:52.303Z,43.90
2019-01-23T11:20:40.672Z,43.70
2019-01-23T11:23:28.695Z,45.07
2019-01-23T11:26:16.788Z,42.53
2019-01-23T11:29:04.908Z,46.43
2019-01-23T11:31:53.048Z,40.43
2019-01-23T11:34:41.234Z,47.97
2019-01-23T11:37:28.897Z,46.00
2019-01-23T11:40:25.787Z,40.60
2019-01-23T11:43:13.585Z,43.73
2019-01-23T11:46:01.399Z,42.63
2019-01-23T11:48:49.697Z,43.03
2019-01-23T11:51:37.902Z,45.77
2019-01-23T11:54:25.927Z,42.83
2019-01-23T11:57:14.094Z,38.50
2019-01-23T12:00:01.993Z,41.77
2019-01-23T12:02:50.304Z,42.77
2019-01-23T12:05:38.355Z,43.30
2019-01-23T12:08:25.873Z,44.27
2019-01-23T12:11:13.867Z,46.63
2019-01-23T12:14:01.842Z,40.70
2019-01-23T12:16:49.727Z,41.23
2019-01-23T12:19:37.257Z,37.07
2019-01-23T12:22:25.095Z,41.33
2019-01-23T12:25:12.943Z,45.60
2019-01-23T12:28:00.742Z,44.40
2019-01-23T12:30:48.553Z,46.57
2019-01-23T12:33:37.278Z,51.80
2019-01-23T12:36:25.248Z,45.47
2019-01-23T12:39:13.324Z,48.00
2019-01-23T12:42:01.428Z,48.57
2019-01-23T12:44:49.622Z,48.70
2019-01-23T12:47:38.221Z,48.73
2019-01-23T12:50:28.361Z,47.13
2019-01-23T12:53:16.701Z,52.23
2019-01-23T12:56:05.185Z,51.67
2019-01-23T12:58:53.398Z,48.80
2019-01-23T13:01:42.181Z,45.87
2019-01-23T13:04:30.118Z,46.63
2019-01-23T13:07:18.241Z,46.03
2019-01-23T13:10:09.064Z,44.67
2019-01-23T13:12:56.992Z,46.83
2019-01-23T13:15:45.286Z,42.80
2019-01-23T13:18:33.201Z,47.23
2019-01-23T13:21:20.809Z,49.43
2019-01-23T13:24:09.147Z,46.53
2019-01-23T13:26:57.226Z,48.77
2019-01-23T13:29:45.379Z,49.93
2019-01-23T13:32:33.546Z,52.90
2019-01-23T13:35:23.591Z,48.50
2019-01-23T13:38:14.806Z,44.90
2019-01-23T13:41:03.351Z,46.80
2019-01-23T13:43:51.278Z,44.87
2019-01-23T13:46:39.548Z,49.53
2019-01-23T13:49:27.617Z,44.70
2019-01-23T13:52:15.500Z,44.97
2019-01-23T13:55:03.619Z,52.47
2019-01-23T13:57:51.871Z,44.73
2019-01-23T14:00:41.157Z,47.33
2019-01-23T14:03:29.319Z,44.90
2019-01-23T14:06:17.341Z,44.50
2019-01-23T14:09:07.396Z,45.77
2019-01-23T14:11:54.952Z,42.40
2019-01-23T14:14:43.199Z,44.20
2019-01-23T14:17:31.279Z,44.20
2019-01-23T14:20:19.316Z,46.33
2019-01-23T14:23:07.620Z,45.60
2019-01-23T14:25:55.470Z,50.97
2019-01-23T14:28:43.742Z,55.63
2019-01-23T14:31:32.020Z,49.57
2019-01-23T14:34:19.873Z,53.63
2019-01-23T14:37:07.794Z,50.17
2019-01-23T14:39:57.148Z,53.50
2019-01-23T14:42:45.381Z,47.70
2019-01-23T14:45:33.467Z,56.20
2019-01-23T14:48:21.696Z,51.90
2019-01-23T14:51:09.431Z,61.47
2019-01-23T14:53:57.527Z,53.40
2019-01-23T14:56:45.937Z,55.13
2019-01-23T14:59:33.831Z,53.53
2019-01-23T15:02:22.070Z,55.60
2019-01-23T15:05:10.204Z,49.20
2019-01-23T15:07:58.653Z,53.63
2019-01-23T15:10:46.543Z,57.73
2019-01-23T15:13:34.755Z,52.57
2019-01-23T15:16:23.043Z,54.40
2019-01-23T15:19:10.672Z,59.43
2019-01-23T15:21:58.145Z,57.53
2019-01-23T15:24:46.633Z,57.20
2019-01-23T15:27:34.909Z,51.33
2019-01-23T15:30:24.088Z,56.63
2019-01-23T15:33:12.206Z,53.63
2019-01-23T15:36:03.160Z,52.90
2019-01-23T15:38:51.316Z,45.50
2019-01-23T15:41:39.211Z,52.90
2019-01-23T15:44:27.322Z,52.10
2019-01-23T15:47:15.270Z,51.33
2019-01-23T15:50:03.843Z,52.50
2019-01-23T15:52:51.754Z,50.67
2019-01-23T15:55:40.301Z,56.77
2019-01-23T15:58:27.911Z,55.53
2019-01-23T16:01:15.929Z,48.70
2019-01-23T16:04:03.798Z,56.30
2019-01-23T16:06:52.044Z,52.60
2019-01-23T16:09:39.966Z,56.70
2019-01-23T16:12:27.494Z,55.93
2019-01-23T16:15:16.519Z,59.67
2019-01-23T16:18:05.102Z,60.70
2019-01-23T16:20:53.022Z,55.50
2019-01-23T16:23:41.319Z,62.77
2019-01-23T16:26:29.213Z,63.33
2019-01-23T16:29:17.272Z,60.33
2019-01-23T16:32:05.349Z,67.90
2019-01-23T16:34:53.520Z,64.50
2019-01-23T16:37:41.441Z,63.87
2019-01-23T16:40:29.720Z,52.90
2019-01-23T16:43:17.976Z,60.90
2019-01-23T16:46:05.943Z,65.70
2019-01-23T16:48:53.940Z,69.67
2019-01-23T16:51:42.187Z,65.30
2019-01-23T16:54:30.193Z,69.30
2019-01-23T16:57:17.763Z,71.17
2019-01-23T17:00:07.425Z,64.97
2019-01-23T17:02:55.768Z,65.07
2019-01-23T17:05:43.707Z,64.53
2019-01-23T17:08:31.567Z,83.20
2019-01-23T17:11:19.840Z,59.57
2019-01-23T17:14:07.772Z,65.60
2019-01-23T17:16:55.832Z,71.47
2019-01-23T17:19:43.640Z,65.43
2019-01-23T17:22:31.671Z,243.93
2019-01-23T17:25:19.478Z,69.30
2019-01-23T17:28:09.126Z,67.30
2019-01-23T17:30:57.237Z,47.33
2019-01-23T17:33:45.410Z,68.17
2019-01-23T17:36:33.671Z,70.60
2019-01-23T17:39:21.449Z,71.33
2019-01-23T17:42:09.604Z,72.03
2019-01-23T17:44:57.480Z,68.73
2019-01-23T17:47:45.573Z,67.77
2019-01-23T17:50:33.463Z,69.83
2019-01-23T17:53:21.487Z,70.83
2019-01-23T17:56:09.158Z,68.83
2019-01-23T17:58:57.040Z,69.60
2019-01-23T18:01:45.066Z,70.37
2019-01-23T18:04:33.547Z,70.33
2019-01-23T18:07:21.621Z,70.97
2019-01-23T18:10:09.633Z,70.17
2019-01-23T18:12:57.833Z,67.60
2019-01-23T18:15:46.146Z,71.67
2019-01-23T18:18:34.084Z,66.50
2019-01-23T18:21:22.329Z,67.13
2019-01-23T18:24:10.143Z,75.03
2019-01-23T18:26:58.366Z,75.97
2019-01-23T18:29:46.788Z,66.33
2019-01-23T18:32:34.924Z,74.97
2019-01-23T18:36:07.830Z,68.67
2019-01-23T18:39:30.169Z,66.70
2019-01-23T18:42:55.654Z,66.60
2019-01-23T18:46:20.204Z,76.87
2019-01-23T18:49:28.064Z,65.33
2019-01-23T18:52:16.193Z,66.43
2019-01-23T18:55:05.048Z,68.67
2019-01-23T18:57:53.022Z,70.17
2019-01-23T19:00:40.773Z,70.53
2019-01-23T19:03:28.916Z,71.73
2019-01-23T19:06:17.035Z,68.50
2019-01-23T19:09:07.999Z,67.60
2019-01-23T19:11:55.513Z,69.87
2019-01-23T19:14:43.841Z,75.80
2019-01-23T19:17:31.792Z,61.43
2019-01-23T19:20:20.907Z,68.37
2019-01-23T19:23:08.912Z,67.87
2019-01-23T19:25:56.862Z,71.23
2019-01-23T19:28:45.091Z,70.47
2019-01-23T19:31:32.984Z,64.17
2019-01-23T19:34:21.352Z,68.40
2019-01-23T19:37:09.368Z,72.50
2019-01-23T19:39:57.040Z,67.73
2019-01-23T19:42:45.370Z,63.37
2019-01-23T19:45:33.237Z,67.33
2019-01-23T19:48:21.206Z,66.07
2019-01-23T19:51:09.048Z,68.67
2019-01-23T19:53:56.854Z,71.07
2019-01-23T19:56:44.883Z,69.73
2019-01-23T19:59:32.828Z,68.07
2019-01-23T20:02:21.194Z,68.13
2019-01-23T20:05:11.423Z,66.93
2019-01-23T20:07:59.601Z,60.57
2019-01-23T20:10:47.806Z,66.37
2019-01-23T20:13:35.528Z,64.60
2019-01-23T20:16:23.436Z,66.87
2019-01-23T20:19:14.061Z,65.57
2019-01-23T20:22:02.571Z,64.50
2019-01-23T20:24:50.346Z,66.73
2019-01-23T20:27:38.434Z,60.17
2019-01-23T20:30:32.462Z,60.27
2019-01-23T20:33:27.683Z,63.10
2019-01-23T20:36:10.410Z,62.43
2019-01-23T20:38:58.326Z,67.40
2019-01-23T20:41:46.392Z,58.23
2019-01-23T20:44:34.332Z,66.27
2019-01-23T20:47:22.367Z,66.47
2019-01-23T20:50:14.744Z,61.17
2019-01-23T20:53:03.166Z,68.13
2019-01-23T20:55:51.376Z,63.70
2019-01-23T20:58:39.426Z,68.60
2019-01-23T21:01:27.451Z,67.57
2019-01-23T21:04:15.732Z,73.57
2019-01-23T21:07:04.083Z,73.20
2019-01-23T21:09:51.946Z,67.07
2019-01-23T21:12:40.359Z,62.03
2019-01-23T21:15:32.520Z,63.83
2019-01-23T21:18:20.569Z,69.87
2019-01-23T21:21:08.610Z,68.43
2019-01-23T21:23:56.457Z,67.80
2019-01-23T21:26:44.292Z,65.93
2019-01-23T21:29:32.359Z,63.97
2019-01-23T21:32:20.612Z,63.40
2019-01-23T21:35:08.915Z,65.80
2019-01-23T21:37:56.543Z,61.00
2019-01-23T21:40:44.674Z,68.50
2019-01-23T21:43:32.869Z,65.33
2019-01-23T21:46:20.770Z,56.30
2019-01-23T21:49:08.836Z,63.47
2019-01-23T21:51:56.987Z,67.70
2019-01-23T21:54:45.120Z,66.63
2019-01-23T21:57:32.992Z,65.63
2019-01-23T22:00:33.013Z,67.03
2019-01-23T22:03:20.999Z,66.27
2019-01-23T22:06:10.121Z,65.83
2019-01-23T22:08:57.886Z,64.00
2019-01-23T22:11:45.748Z,61.03
2019-01-23T22:14:33.967Z,67.50
2019-01-23T22:17:21.603Z,61.27
2019-01-23T22:20:12.086Z,66.60
2019-01-23T22:22:59.894Z,63.40
2019-01-23T22:25:48.075Z,60.47
2019-01-23T22:28:36.513Z,68.50
2019-01-23T22:31:24.600Z,58.37
2019-01-23T22:34:12.545Z,62.73
2019-01-23T22:37:00.778Z,65.73
2019-01-23T22:39:49.706Z,65.53
2019-01-23T22:42:37.974Z,70.60
2019-01-23T22:45:25.742Z,69.40
2019-01-23T22:48:13.645Z,69.40
2019-01-23T22:51:01.872Z,62.57
2019-01-23T22:53:50.058Z,66.27
2019-01-23T22:56:38.105Z,64.17
2019-01-23T22:59:25.941Z,65.47
2019-01-23T23:02:14.131Z,67.40
2019-01-23T23:05:02.050Z,64.03
2019-01-23T23:07:50.385Z,62.17
2019-01-23T23:10:38.481Z,73.33
2019-01-23T23:13:26.782Z,71.50
2019-01-23T23:16:15.042Z,64.43
2019-01-23T23:19:02.842Z,67.93
2019-01-23T23:21:50.940Z,72.37
2019-01-23T23:24:39.061Z,69.10
2019-01-23T23:27:27.522Z,66.33
2019-01-23T23:30:15.928Z,69.97
2019-01-23T23:33:03.666Z,68.03
2019-01-23T23:35:51.656Z,67.10
2019-01-23T23:38:39.486Z,69.53
2019-01-23T23:41:27.581Z,66.60
2019-01-23T23:44:15.441Z,72.43
2019-01-23T23:47:03.494Z,70.43
2019-01-23T23:49:51.626Z,67.77
2019-01-23T23:52:39.418Z,72.43
2019-01-23T23:55:27.224Z,70.23
2019-01-23T23:58:15.022Z,72.73
